Terminal Aerodrome Forecast
Issued by NWS Green Bay, WI

Home | Current Version | Previous Version | Graphics & Text | Print | Product List | Glossary On
Versions: 1 2 3 4 5 6 7 8 9 10 11 12 13 14 15 16 17 18 19 20 21 22 23 24 25 26 27 28 29 30 31 32 33 34 35 36 37 38 39 40 41
000
FTUS43 KGRB 260049 AAA
TAFGRB
TAF AMD
KGRB 260049Z 2601/2624 21010G17KT P6SM -SHRA BKN050 BKN080
      WS015/24040KT
      TEMPO 2601/2602 25020G30KT 3SM TSRA BKN025CB
     FM260200 20009KT P6SM SCT050 WS015/24040KT
      TEMPO 2609/2613 2SM BR BKN010
     FM261300 20009KT P6SM SCT040 BKN120
     FM261700 16011KT P6SM -SHRA BKN040 BKN080
     FM262100 10010KT 6SM -SHRA BKN025 OVC040=

USA.gov is the U.S. government's official web portal to all federal, state and local government web resources and services.